sensor_id;sensor_type;location;lat;lon;timestamp;P1;durP1;ratioP1;P2;durP2;ratioP2
7545;SDS011;3814;51.454;12.616;2023-04-01T00:00:48;3.53;;;1.00;;
7545;SDS011;3814;51.454;12.616;2023-04-01T00:03:14;2.22;;;1.05;;
7545;SDS011;3814;51.454;12.616;2023-04-01T00:05:40;2.40;;;0.88;;
7545;SDS011;3814;51.454;12.616;2023-04-01T00:08:05;2.45;;;1.20;;
7545;SDS011;3814;51.454;12.616;2023-04-01T00:10:30;2.85;;;0.90;;
7545;SDS011;3814;51.454;12.616;2023-04-01T00:12:56;3.38;;;0.80;;
7545;SDS011;3814;51.454;12.616;2023-04-01T00:15:21;4.38;;;1.00;;
7545;SDS011;3814;51.454;12.616;2023-04-01T00:17:46;2.70;;;0.90;;
7545;SDS011;3814;51.454;12.616;2023-04-01T00:20:12;2.50;;;1.00;;
7545;SDS011;3814;51.454;12.616;2023-04-01T00:22:39;2.95;;;1.13;;
7545;SDS011;3814;51.454;12.616;2023-04-01T00:25:04;3.08;;;1.13;;
7545;SDS011;3814;51.454;12.616;2023-04-01T00:27:30;2.72;;;0.90;;
7545;SDS011;3814;51.454;12.616;2023-04-01T00:29:55;3.08;;;1.00;;
7545;SDS011;3814;51.454;12.616;2023-04-01T00:32:21;2.65;;;1.00;;
7545;SDS011;3814;51.454;12.616;2023-04-01T00:34:49;4.88;;;1.27;;
7545;SDS011;3814;51.454;12.616;2023-04-01T00:37:16;2.67;;;0.98;;
7545;SDS011;3814;51.454;12.616;2023-04-01T00:39:41;2.63;;;1.10;;
7545;SDS011;3814;51.454;12.616;2023-04-01T00:42:08;3.28;;;0.90;;
7545;SDS011;3814;51.454;12.616;2023-04-01T00:44:34;1.95;;;0.90;;
7545;SDS011;3814;51.454;12.616;2023-04-01T00:46:59;2.42;;;0.95;;
7545;SDS011;3814;51.454;12.616;2023-04-01T00:49:26;2.45;;;1.02;;
7545;SDS011;3814;51.454;12.616;2023-04-01T00:52:13;2.17;;;1.02;;
7545;SDS011;3814;51.454;12.616;2023-04-01T00:54:40;1.65;;;1.00;;
7545;SDS011;3814;51.454;12.616;2023-04-01T00:57:15;2.53;;;0.90;;
7545;SDS011;3814;51.454;12.616;2023-04-01T00:59:46;2.92;;;1.55;;
7545;SDS011;3814;51.454;12.616;2023-04-01T01:02:13;3.13;;;1.10;;
7545;SDS011;3814;51.454;12.616;2023-04-01T01:04:39;2.38;;;1.08;;
7545;SDS011;3814;51.454;12.616;2023-04-01T01:10:07;3.40;;;1.10;;
7545;SDS011;3814;51.454;12.616;2023-04-01T01:18:23;3.83;;;1.02;;
7545;SDS011;3814;51.454;12.616;2023-04-01T01:29:40;3.00;;;1.10;;
7545;SDS011;3814;51.454;12.616;2023-04-01T01:37:53;4.00;;;1.20;;
7545;SDS011;3814;51.454;12.616;2023-04-01T01:40:20;6.45;;;1.20;;
7545;SDS011;3814;51.454;12.616;2023-04-01T01:42:47;4.65;;;1.20;;
7545;SDS011;3814;51.454;12.616;2023-04-01T01:45:14;3.45;;;1.10;;
7545;SDS011;3814;51.454;12.616;2023-04-01T01:47:42;4.22;;;1.00;;
7545;SDS011;3814;51.454;12.616;2023-04-01T01:50:08;3.92;;;1.20;;
7545;SDS011;3814;51.454;12.616;2023-04-01T01:52:34;2.42;;;1.13;;
7545;SDS011;3814;51.454;12.616;2023-04-01T01:54:59;3.35;;;1.40;;
7545;SDS011;3814;51.454;12.616;2023-04-01T01:57:28;2.58;;;1.15;;
7545;SDS011;3814;51.454;12.616;2023-04-01T01:59:58;2.78;;;1.20;;
7545;SDS011;3814;51.454;12.616;2023-04-01T02:02:27;2.33;;;1.23;;
7545;SDS011;3814;51.454;12.616;2023-04-01T02:07:28;4.53;;;1.70;;
7545;SDS011;3814;51.454;12.616;2023-04-01T02:09:56;2.90;;;1.25;;
7545;SDS011;3814;51.454;12.616;2023-04-01T02:12:22;4.38;;;1.40;;
7545;SDS011;3814;51.454;12.616;2023-04-01T02:14:59;4.50;;;1.40;;
7545;SDS011;3814;51.454;12.616;2023-04-01T02:17:30;4.40;;;1.38;;
7545;SDS011;3814;51.454;12.616;2023-04-01T02:20:19;3.22;;;1.05;;
7545;SDS011;3814;51.454;12.616;2023-04-01T02:22:50;4.50;;;1.23;;
7545;SDS011;3814;51.454;12.616;2023-04-01T02:25:18;4.32;;;1.20;;
7545;SDS011;3814;51.454;12.616;2023-04-01T02:27:45;3.03;;;1.60;;
7545;SDS011;3814;51.454;12.616;2023-04-01T02:30:12;3.58;;;1.30;;
7545;SDS011;3814;51.454;12.616;2023-04-01T02:32:38;4.35;;;1.40;;
7545;SDS011;3814;51.454;12.616;2023-04-01T02:35:08;3.58;;;1.20;;
7545;SDS011;3814;51.454;12.616;2023-04-01T02:37:35;4.40;;;1.35;;
7545;SDS011;3814;51.454;12.616;2023-04-01T02:40:05;3.08;;;1.38;;
7545;SDS011;3814;51.454;12.616;2023-04-01T02:42:32;3.17;;;1.27;;
7545;SDS011;3814;51.454;12.616;2023-04-01T02:44:58;3.85;;;1.23;;
7545;SDS011;3814;51.454;12.616;2023-04-01T02:47:23;3.75;;;1.20;;
7545;SDS011;3814;51.454;12.616;2023-04-01T02:49:48;2.47;;;1.50;;
7545;SDS011;3814;51.454;12.616;2023-04-01T02:52:14;3.42;;;1.30;;
7545;SDS011;3814;51.454;12.616;2023-04-01T02:54:39;3.65;;;1.52;;
7545;SDS011;3814;51.454;12.616;2023-04-01T02:57:05;2.85;;;1.45;;
7545;SDS011;3814;51.454;12.616;2023-04-01T02:59:30;3.60;;;1.40;;
7545;SDS011;3814;51.454;12.616;2023-04-01T03:01:55;3.33;;;1.40;;
7545;SDS011;3814;51.454;12.616;2023-04-01T03:04:21;6.10;;;1.83;;
7545;SDS011;3814;51.454;12.616;2023-04-01T03:06:46;3.45;;;1.52;;
7545;SDS011;3814;51.454;12.616;2023-04-01T03:09:11;3.33;;;1.40;;
7545;SDS011;3814;51.454;12.616;2023-04-01T03:11:37;3.63;;;1.30;;
7545;SDS011;3814;51.454;12.616;2023-04-01T03:14:02;4.00;;;1.50;;
7545;SDS011;3814;51.454;12.616;2023-04-01T03:16:27;5.75;;;1.58;;
7545;SDS011;3814;51.454;12.616;2023-04-01T03:18:53;3.70;;;1.50;;
7545;SDS011;3814;51.454;12.616;2023-04-01T03:21:21;4.93;;;1.20;;
7545;SDS011;3814;51.454;12.616;2023-04-01T03:23:48;2.80;;;1.35;;
7545;SDS011;3814;51.454;12.616;2023-04-01T03:26:13;4.50;;;1.10;;
7545;SDS011;3814;51.454;12.616;2023-04-01T03:28:39;3.20;;;1.23;;
7545;SDS011;3814;51.454;12.616;2023-04-01T03:31:04;4.47;;;1.40;;
7545;SDS011;3814;51.454;12.616;2023-04-01T03:33:30;2.22;;;1.20;;
7545;SDS011;3814;51.454;12.616;2023-04-01T03:35:56;4.72;;;1.48;;
7545;SDS011;3814;51.454;12.616;2023-04-01T03:38:21;5.55;;;1.20;;
7545;SDS011;3814;51.454;12.616;2023-04-01T03:40:46;2.58;;;1.08;;
7545;SDS011;3814;51.454;12.616;2023-04-01T03:43:12;4.28;;;1.30;;
7545;SDS011;3814;51.454;12.616;2023-04-01T03:45:47;3.67;;;1.40;;
7545;SDS011;3814;51.454;12.616;2023-04-01T03:48:14;3.85;;;1.40;;
7545;SDS011;3814;51.454;12.616;2023-04-01T03:50:39;3.03;;;1.20;;
7545;SDS011;3814;51.454;12.616;2023-04-01T03:53:05;4.93;;;1.17;;
7545;SDS011;3814;51.454;12.616;2023-04-01T03:55:30;6.88;;;1.35;;
7545;SDS011;3814;51.454;12.616;2023-04-01T03:57:55;4.78;;;1.23;;
7545;SDS011;3814;51.454;12.616;2023-04-01T04:00:21;4.03;;;1.50;;
7545;SDS011;3814;51.454;12.616;2023-04-01T04:02:46;4.65;;;1.25;;
7545;SDS011;3814;51.454;12.616;2023-04-01T04:05:11;4.32;;;1.23;;
7545;SDS011;3814;51.454;12.616;2023-04-01T04:07:38;3.70;;;1.20;;
7545;SDS011;3814;51.454;12.616;2023-04-01T04:10:03;3.42;;;1.20;;
7545;SDS011;3814;51.454;12.616;2023-04-01T04:12:29;4.72;;;1.40;;
7545;SDS011;3814;51.454;12.616;2023-04-01T04:14:54;3.78;;;1.23;;
7545;SDS011;3814;51.454;12.616;2023-04-01T04:17:20;3.50;;;1.35;;
7545;SDS011;3814;51.454;12.616;2023-04-01T04:19:45;5.70;;;1.20;;
7545;SDS011;3814;51.454;12.616;2023-04-01T04:22:10;5.20;;;1.42;;
7545;SDS011;3814;51.454;12.616;2023-04-01T04:24:35;3.28;;;1.20;;
7545;SDS011;3814;51.454;12.616;2023-04-01T04:27:01;4.85;;;1.30;;
7545;SDS011;3814;51.454;12.616;2023-04-01T04:29:26;2.83;;;1.30;;
7545;SDS011;3814;51.454;12.616;2023-04-01T04:31:52;3.08;;;1.45;;
7545;SDS011;3814;51.454;12.616;2023-04-01T04:34:17;3.80;;;1.40;;
7545;SDS011;3814;51.454;12.616;2023-04-01T04:36:43;3.78;;;1.38;;
7545;SDS011;3814;51.454;12.616;2023-04-01T04:39:08;2.97;;;1.20;;
7545;SDS011;3814;51.454;12.616;2023-04-01T04:41:34;3.42;;;1.23;;
7545;SDS011;3814;51.454;12.616;2023-04-01T04:44:02;3.20;;;1.35;;
7545;SDS011;3814;51.454;12.616;2023-04-01T04:46:27;7.70;;;1.33;;
7545;SDS011;3814;51.454;12.616;2023-04-01T04:48:52;4.93;;;1.23;;
7545;SDS011;3814;51.454;12.616;2023-04-01T04:51:18;4.15;;;1.40;;
7545;SDS011;3814;51.454;12.616;2023-04-01T04:53:44;4.80;;;1.13;;
7545;SDS011;3814;51.454;12.616;2023-04-01T04:56:10;6.18;;;2.00;;
7545;SDS011;3814;51.454;12.616;2023-04-01T04:58:36;3.00;;;1.20;;
7545;SDS011;3814;51.454;12.616;2023-04-01T05:01:05;3.25;;;1.20;;
7545;SDS011;3814;51.454;12.616;2023-04-01T05:03:34;3.00;;;1.30;;
7545;SDS011;3814;51.454;12.616;2023-04-01T05:05:59;2.70;;;1.30;;
7545;SDS011;3814;51.454;12.616;2023-04-01T05:08:24;2.92;;;1.00;;
7545;SDS011;3814;51.454;12.616;2023-04-01T05:10:50;4.50;;;1.10;;
7545;SDS011;3814;51.454;12.616;2023-04-01T05:13:15;2.53;;;1.23;;
7545;SDS011;3814;51.454;12.616;2023-04-01T05:15:40;3.53;;;1.30;;
7545;SDS011;3814;51.454;12.616;2023-04-01T05:18:06;3.53;;;1.40;;
7545;SDS011;3814;51.454;12.616;2023-04-01T05:20:31;5.78;;;1.30;;
7545;SDS011;3814;51.454;12.616;2023-04-01T05:22:57;3.45;;;1.33;;
7545;SDS011;3814;51.454;12.616;2023-04-01T05:25:23;2.72;;;1.40;;
7545;SDS011;3814;51.454;12.616;2023-04-01T05:27:48;3.38;;;1.50;;
7545;SDS011;3814;51.454;12.616;2023-04-01T05:30:13;4.90;;;1.27;;
7545;SDS011;3814;51.454;12.616;2023-04-01T05:32:38;4.75;;;1.30;;
7545;SDS011;3814;51.454;12.616;2023-04-01T05:35:04;3.35;;;1.30;;
7545;SDS011;3814;51.454;12.616;2023-04-01T05:37:30;4.70;;;1.48;;
7545;SDS011;3814;51.454;12.616;2023-04-01T05:39:55;4.25;;;1.20;;
7545;SDS011;3814;51.454;12.616;2023-04-01T05:42:21;5.05;;;1.30;;
7545;SDS011;3814;51.454;12.616;2023-04-01T05:44:46;3.38;;;1.27;;
7545;SDS011;3814;51.454;12.616;2023-04-01T05:47:11;3.08;;;1.27;;
7545;SDS011;3814;51.454;12.616;2023-04-01T05:49:36;3.22;;;1.50;;
7545;SDS011;3814;51.454;12.616;2023-04-01T05:52:02;5.97;;;1.40;;
7545;SDS011;3814;51.454;12.616;2023-04-01T05:54:27;2.50;;;1.20;;
7545;SDS011;3814;51.454;12.616;2023-04-01T05:56:52;2.67;;;1.40;;
7545;SDS011;3814;51.454;12.616;2023-04-01T05:59:17;6.60;;;1.70;;
7545;SDS011;3814;51.454;12.616;2023-04-01T06:01:43;2.72;;;1.30;;
7545;SDS011;3814;51.454;12.616;2023-04-01T06:04:15;3.20;;;1.33;;
7545;SDS011;3814;51.454;12.616;2023-04-01T06:06:41;2.65;;;1.40;;
7545;SDS011;3814;51.454;12.616;2023-04-01T06:09:10;3.05;;;1.50;;
7545;SDS011;3814;51.454;12.616;2023-04-01T06:11:45;4.82;;;1.27;;
7545;SDS011;3814;51.454;12.616;2023-04-01T06:14:42;3.53;;;1.38;;
7545;SDS011;3814;51.454;12.616;2023-04-01T06:25:52;3.83;;;1.20;;
7545;SDS011;3814;51.454;12.616;2023-04-01T06:28:45;2.80;;;1.20;;
7545;SDS011;3814;51.454;12.616;2023-04-01T06:31:25;2.60;;;1.20;;
7545;SDS011;3814;51.454;12.616;2023-04-01T06:34:18;3.10;;;1.38;;
7545;SDS011;3814;51.454;12.616;2023-04-01T06:36:55;3.90;;;1.17;;
7545;SDS011;3814;51.454;12.616;2023-04-01T06:39:43;3.40;;;1.25;;
7545;SDS011;3814;51.454;12.616;2023-04-01T06:42:18;2.90;;;1.10;;
7545;SDS011;3814;51.454;12.616;2023-04-01T06:45:14;2.55;;;1.35;;
7545;SDS011;3814;51.454;12.616;2023-04-01T06:47:49;4.82;;;1.20;;
7545;SDS011;3814;51.454;12.616;2023-04-01T06:58:20;1.65;;;0.82;;
7545;SDS011;3814;51.454;12.616;2023-04-01T07:00:48;1.77;;;1.00;;
7545;SDS011;3814;51.454;12.616;2023-04-01T07:06:03;4.72;;;1.10;;
7545;SDS011;3814;51.454;12.616;2023-04-01T07:08:30;2.65;;;1.10;;
7545;SDS011;3814;51.454;12.616;2023-04-01T07:11:03;3.53;;;1.10;;
7545;SDS011;3814;51.454;12.616;2023-04-01T07:13:48;1.63;;;0.93;;
7545;SDS011;3814;51.454;12.616;2023-04-01T07:19:01;1.60;;;1.05;;
7545;SDS011;3814;51.454;12.616;2023-04-01T07:21:40;4.18;;;1.05;;
7545;SDS011;3814;51.454;12.616;2023-04-01T07:26:53;3.70;;;1.08;;
7545;SDS011;3814;51.454;12.616;2023-04-01T07:29:20;2.15;;;1.00;;
7545;SDS011;3814;51.454;12.616;2023-04-01T07:31:50;4.40;;;1.30;;
7545;SDS011;3814;51.454;12.616;2023-04-01T07:34:50;2.63;;;1.10;;
7545;SDS011;3814;51.454;12.616;2023-04-01T07:37:31;4.05;;;1.10;;
7545;SDS011;3814;51.454;12.616;2023-04-01T07:43:01;1.75;;;1.00;;
7545;SDS011;3814;51.454;12.616;2023-04-01T07:45:38;3.92;;;1.00;;
7545;SDS011;3814;51.454;12.616;2023-04-01T07:48:43;2.70;;;1.13;;
7545;SDS011;3814;51.454;12.616;2023-04-01T07:51:27;1.67;;;0.98;;
7545;SDS011;3814;51.454;12.616;2023-04-01T07:59:27;2.47;;;0.85;;
7545;SDS011;3814;51.454;12.616;2023-04-01T08:02:13;2.55;;;1.08;;
7545;SDS011;3814;51.454;12.616;2023-04-01T08:04:55;2.92;;;1.00;;
7545;SDS011;3814;51.454;12.616;2023-04-01T08:07:35;1.30;;;0.80;;
7545;SDS011;3814;51.454;12.616;2023-04-01T08:10:21;2.42;;;0.70;;
7545;SDS011;3814;51.454;12.616;2023-04-01T08:13:01;2.72;;;0.80;;
7545;SDS011;3814;51.454;12.616;2023-04-01T08:15:51;2.65;;;0.80;;
7545;SDS011;3814;51.454;12.616;2023-04-01T08:18:34;1.13;;;0.65;;
7545;SDS011;3814;51.454;12.616;2023-04-01T08:21:14;3.17;;;0.90;;
7545;SDS011;3814;51.454;12.616;2023-04-01T08:23:44;2.50;;;0.85;;
7545;SDS011;3814;51.454;12.616;2023-04-01T08:26:32;2.05;;;0.65;;
7545;SDS011;3814;51.454;12.616;2023-04-01T08:29:20;1.95;;;0.80;;
7545;SDS011;3814;51.454;12.616;2023-04-01T08:34:26;1.90;;;0.75;;
7545;SDS011;3814;51.454;12.616;2023-04-01T08:37:02;4.50;;;1.00;;
7545;SDS011;3814;51.454;12.616;2023-04-01T08:39:31;3.00;;;0.93;;
7545;SDS011;3814;51.454;12.616;2023-04-01T08:42:03;3.58;;;0.88;;
7545;SDS011;3814;51.454;12.616;2023-04-01T08:44:46;1.90;;;0.98;;
7545;SDS011;3814;51.454;12.616;2023-04-01T08:50:22;5.78;;;2.20;;
7545;SDS011;3814;51.454;12.616;2023-04-01T08:53:06;3.13;;;1.30;;
7545;SDS011;3814;51.454;12.616;2023-04-01T08:56:12;3.58;;;1.42;;
7545;SDS011;3814;51.454;12.616;2023-04-01T08:58:54;4.88;;;1.00;;
7545;SDS011;3814;51.454;12.616;2023-04-01T09:01:26;1.75;;;0.70;;
7545;SDS011;3814;51.454;12.616;2023-04-01T09:06:40;2.15;;;0.80;;
7545;SDS011;3814;51.454;12.616;2023-04-01T09:12:27;3.45;;;1.13;;
7545;SDS011;3814;51.454;12.616;2023-04-01T09:18:02;2.58;;;0.70;;
7545;SDS011;3814;51.454;12.616;2023-04-01T09:24:00;1.13;;;0.70;;
7545;SDS011;3814;51.454;12.616;2023-04-01T09:26:43;1.77;;;0.60;;
7545;SDS011;3814;51.454;12.616;2023-04-01T09:29:33;1.48;;;0.60;;
7545;SDS011;3814;51.454;12.616;2023-04-01T09:32:15;1.75;;;0.80;;
7545;SDS011;3814;51.454;12.616;2023-04-01T09:37:51;1.95;;;0.68;;
7545;SDS011;3814;51.454;12.616;2023-04-01T09:45:37;2.95;;;0.80;;
7545;SDS011;3814;51.454;12.616;2023-04-01T09:51:23;1.77;;;0.65;;
7545;SDS011;3814;51.454;12.616;2023-04-01T09:59:32;2.03;;;0.70;;
7545;SDS011;3814;51.454;12.616;2023-04-01T10:08:18;4.35;;;0.88;;
7545;SDS011;3814;51.454;12.616;2023-04-01T10:10:59;2.20;;;0.70;;
7545;SDS011;3814;51.454;12.616;2023-04-01T10:13:36;1.90;;;0.73;;
7545;SDS011;3814;51.454;12.616;2023-04-01T10:16:18;1.73;;;0.60;;
7545;SDS011;3814;51.454;12.616;2023-04-01T10:24:28;1.73;;;0.88;;
7545;SDS011;3814;51.454;12.616;2023-04-01T10:32:52;2.05;;;0.90;;
7545;SDS011;3814;51.454;12.616;2023-04-01T10:38:39;2.67;;;0.90;;
7545;SDS011;3814;51.454;12.616;2023-04-01T10:41:22;3.25;;;0.90;;
7545;SDS011;3814;51.454;12.616;2023-04-01T10:44:14;4.18;;;1.10;;
7545;SDS011;3814;51.454;12.616;2023-04-01T10:46:57;1.80;;;0.70;;
7545;SDS011;3814;51.454;12.616;2023-04-01T10:53:07;2.08;;;1.00;;
7545;SDS011;3814;51.454;12.616;2023-04-01T10:58:08;2.10;;;0.77;;
7545;SDS011;3814;51.454;12.616;2023-04-01T11:00:57;2.20;;;0.73;;
7545;SDS011;3814;51.454;12.616;2023-04-01T11:06:20;1.90;;;0.85;;
7545;SDS011;3814;51.454;12.616;2023-04-01T11:11:55;1.52;;;0.70;;
7545;SDS011;3814;51.454;12.616;2023-04-01T11:20:28;2.15;;;0.80;;
7545;SDS011;3814;51.454;12.616;2023-04-01T11:29:03;2.72;;;1.20;;
7545;SDS011;3814;51.454;12.616;2023-04-01T11:31:39;2.53;;;1.20;;
7545;SDS011;3814;51.454;12.616;2023-04-01T11:34:16;2.78;;;1.10;;
7545;SDS011;3814;51.454;12.616;2023-04-01T11:37:03;2.88;;;1.15;;
7545;SDS011;3814;51.454;12.616;2023-04-01T11:42:34;3.17;;;1.33;;
7545;SDS011;3814;51.454;12.616;2023-04-01T11:48:07;6.53;;;2.70;;
7545;SDS011;3814;51.454;12.616;2023-04-01T11:56:17;4.68;;;2.00;;
7545;SDS011;3814;51.454;12.616;2023-04-01T12:01:46;5.38;;;2.33;;
7545;SDS011;3814;51.454;12.616;2023-04-01T12:04:23;4.32;;;1.90;;
7545;SDS011;3814;51.454;12.616;2023-04-01T12:07:03;6.57;;;2.42;;
7545;SDS011;3814;51.454;12.616;2023-04-01T12:09:37;2.35;;;1.27;;
7545;SDS011;3814;51.454;12.616;2023-04-01T12:12:29;2.28;;;0.93;;
7545;SDS011;3814;51.454;12.616;2023-04-01T12:20:43;3.35;;;1.38;;
7545;SDS011;3814;51.454;12.616;2023-04-01T12:23:18;2.85;;;1.30;;
7545;SDS011;3814;51.454;12.616;2023-04-01T12:35:00;1.58;;;1.02;;
7545;SDS011;3814;51.454;12.616;2023-04-01T12:40:38;1.30;;;0.70;;
7545;SDS011;3814;51.454;12.616;2023-04-01T12:43:28;1.48;;;0.90;;
7545;SDS011;3814;51.454;12.616;2023-04-01T12:46:03;3.05;;;0.80;;
7545;SDS011;3814;51.454;12.616;2023-04-01T12:48:42;1.35;;;0.90;;
7545;SDS011;3814;51.454;12.616;2023-04-01T12:54:32;2.60;;;1.02;;
7545;SDS011;3814;51.454;12.616;2023-04-01T13:06:10;1.52;;;0.82;;
7545;SDS011;3814;51.454;12.616;2023-04-01T13:09:04;1.73;;;0.77;;
7545;SDS011;3814;51.454;12.616;2023-04-01T13:12:01;2.92;;;0.80;;
7545;SDS011;3814;51.454;12.616;2023-04-01T13:20:44;1.70;;;0.65;;
7545;SDS011;3814;51.454;12.616;2023-04-01T13:23:30;1.38;;;0.80;;
7545;SDS011;3814;51.454;12.616;2023-04-01T13:26:05;1.67;;;0.60;;
7545;SDS011;3814;51.454;12.616;2023-04-01T13:28:44;1.63;;;0.70;;
7545;SDS011;3814;51.454;12.616;2023-04-01T13:37:32;3.25;;;1.10;;
7545;SDS011;3814;51.454;12.616;2023-04-01T13:42:57;2.25;;;0.80;;
7545;SDS011;3814;51.454;12.616;2023-04-01T13:50:52;1.20;;;0.80;;
7545;SDS011;3814;51.454;12.616;2023-04-01T13:53:45;3.58;;;1.60;;
7545;SDS011;3814;51.454;12.616;2023-04-01T13:59:25;1.48;;;0.90;;
7545;SDS011;3814;51.454;12.616;2023-04-01T14:02:29;4.38;;;1.95;;
7545;SDS011;3814;51.454;12.616;2023-04-01T14:08:26;3.42;;;1.55;;
7545;SDS011;3814;51.454;12.616;2023-04-01T14:11:16;3.60;;;1.70;;
7545;SDS011;3814;51.454;12.616;2023-04-01T14:22:23;0.82;;;0.60;;
7545;SDS011;3814;51.454;12.616;2023-04-01T14:30:40;1.15;;;0.60;;
7545;SDS011;3814;51.454;12.616;2023-04-01T14:33:20;1.25;;;0.57;;
7545;SDS011;3814;51.454;12.616;2023-04-01T14:39:03;2.45;;;0.77;;
7545;SDS011;3814;51.454;12.616;2023-04-01T14:47:21;3.50;;;1.90;;
7545;SDS011;3814;51.454;12.616;2023-04-01T14:50:08;4.43;;;1.83;;
7545;SDS011;3814;51.454;12.616;2023-04-01T14:52:38;4.40;;;2.25;;
7545;SDS011;3814;51.454;12.616;2023-04-01T14:58:12;5.20;;;2.30;;
7545;SDS011;3814;51.454;12.616;2023-04-01T15:00:41;7.65;;;3.38;;
7545;SDS011;3814;51.454;12.616;2023-04-01T15:03:25;2.47;;;1.20;;
7545;SDS011;3814;51.454;12.616;2023-04-01T15:11:55;1.80;;;1.08;;
7545;SDS011;3814;51.454;12.616;2023-04-01T15:25:31;1.00;;;0.70;;
7545;SDS011;3814;51.454;12.616;2023-04-01T15:28:09;1.02;;;0.60;;
7545;SDS011;3814;51.454;12.616;2023-04-01T15:30:48;2.53;;;1.25;;
7545;SDS011;3814;51.454;12.616;2023-04-01T15:33:28;2.17;;;0.90;;
7545;SDS011;3814;51.454;12.616;2023-04-01T15:36:04;3.65;;;1.50;;
7545;SDS011;3814;51.454;12.616;2023-04-01T15:41:37;2.05;;;1.02;;
7545;SDS011;3814;51.454;12.616;2023-04-01T15:46:55;1.75;;;0.98;;
7545;SDS011;3814;51.454;12.616;2023-04-01T15:52:03;2.88;;;1.35;;
7545;SDS011;3814;51.454;12.616;2023-04-01T16:02:30;2.55;;;1.17;;
7545;SDS011;3814;51.454;12.616;2023-04-01T16:04:58;2.65;;;1.30;;
7545;SDS011;3814;51.454;12.616;2023-04-01T16:07:48;2.75;;;1.52;;
7545;SDS011;3814;51.454;12.616;2023-04-01T16:24:24;1.83;;;0.90;;
7545;SDS011;3814;51.454;12.616;2023-04-01T16:29:45;2.40;;;0.70;;
7545;SDS011;3814;51.454;12.616;2023-04-01T16:32:15;1.75;;;0.70;;
7545;SDS011;3814;51.454;12.616;2023-04-01T16:34:46;1.58;;;0.70;;
7545;SDS011;3814;51.454;12.616;2023-04-01T16:37:20;2.00;;;0.60;;
7545;SDS011;3814;51.454;12.616;2023-04-01T16:39:49;1.35;;;0.70;;
7545;SDS011;3814;51.454;12.616;2023-04-01T16:42:31;2.10;;;0.80;;
7545;SDS011;3814;51.454;12.616;2023-04-01T16:45:06;4.22;;;1.00;;
7545;SDS011;3814;51.454;12.616;2023-04-01T16:47:53;2.80;;;1.25;;
7545;SDS011;3814;51.454;12.616;2023-04-01T16:50:21;2.35;;;1.02;;
7545;SDS011;3814;51.454;12.616;2023-04-01T16:53:10;1.83;;;0.90;;
7545;SDS011;3814;51.454;12.616;2023-04-01T16:55:44;1.63;;;0.95;;
7545;SDS011;3814;51.454;12.616;2023-04-01T16:58:18;2.58;;;1.40;;
7545;SDS011;3814;51.454;12.616;2023-04-01T17:01:03;2.67;;;1.40;;
7545;SDS011;3814;51.454;12.616;2023-04-01T17:03:36;2.25;;;1.15;;
7545;SDS011;3814;51.454;12.616;2023-04-01T17:06:08;2.85;;;1.33;;
7545;SDS011;3814;51.454;12.616;2023-04-01T17:08:48;2.28;;;1.25;;
7545;SDS011;3814;51.454;12.616;2023-04-01T17:14:31;3.53;;;2.05;;
7545;SDS011;3814;51.454;12.616;2023-04-01T17:17:14;3.67;;;1.60;;
7545;SDS011;3814;51.454;12.616;2023-04-01T17:22:13;3.30;;;1.60;;
7545;SDS011;3814;51.454;12.616;2023-04-01T17:24:59;5.18;;;2.15;;
7545;SDS011;3814;51.454;12.616;2023-04-01T17:27:36;3.10;;;1.52;;
7545;SDS011;3814;51.454;12.616;2023-04-01T17:33:00;2.40;;;1.30;;
7545;SDS011;3814;51.454;12.616;2023-04-01T17:47:05;1.60;;;0.80;;
7545;SDS011;3814;51.454;12.616;2023-04-01T17:49:44;1.70;;;1.20;;
7545;SDS011;3814;51.454;12.616;2023-04-01T17:52:19;1.65;;;1.00;;
7545;SDS011;3814;51.454;12.616;2023-04-01T17:57:59;2.45;;;1.23;;
7545;SDS011;3814;51.454;12.616;2023-04-01T18:00:50;1.67;;;1.17;;
7545;SDS011;3814;51.454;12.616;2023-04-01T18:03:25;2.50;;;1.23;;
7545;SDS011;3814;51.454;12.616;2023-04-01T18:06:14;2.05;;;1.05;;
7545;SDS011;3814;51.454;12.616;2023-04-01T18:09:05;4.05;;;2.20;;
7545;SDS011;3814;51.454;12.616;2023-04-01T18:11:44;9.32;;;5.03;;
7545;SDS011;3814;51.454;12.616;2023-04-01T18:14:36;17.13;;;7.60;;
7545;SDS011;3814;51.454;12.616;2023-04-01T18:20:35;5.82;;;3.33;;
7545;SDS011;3814;51.454;12.616;2023-04-01T18:26:05;5.68;;;2.85;;
7545;SDS011;3814;51.454;12.616;2023-04-01T18:28:43;6.82;;;3.47;;
7545;SDS011;3814;51.454;12.616;2023-04-01T18:31:17;8.75;;;4.00;;
7545;SDS011;3814;51.454;12.616;2023-04-01T18:33:46;10.60;;;5.00;;
7545;SDS011;3814;51.454;12.616;2023-04-01T18:36:16;11.82;;;4.60;;
7545;SDS011;3814;51.454;12.616;2023-04-01T18:38:47;10.23;;;4.85;;
7545;SDS011;3814;51.454;12.616;2023-04-01T18:41:35;10.80;;;5.30;;
7545;SDS011;3814;51.454;12.616;2023-04-01T18:44:16;9.30;;;4.22;;
7545;SDS011;3814;51.454;12.616;2023-04-01T18:46:55;9.52;;;4.30;;
7545;SDS011;3814;51.454;12.616;2023-04-01T18:57:25;3.45;;;1.92;;
7545;SDS011;3814;51.454;12.616;2023-04-01T18:59:53;3.35;;;1.90;;
7545;SDS011;3814;51.454;12.616;2023-04-01T19:02:34;3.25;;;1.85;;
7545;SDS011;3814;51.454;12.616;2023-04-01T19:05:11;3.75;;;2.03;;
7545;SDS011;3814;51.454;12.616;2023-04-01T19:07:55;4.35;;;2.03;;
7545;SDS011;3814;51.454;12.616;2023-04-01T19:10:40;4.28;;;2.40;;
7545;SDS011;3814;51.454;12.616;2023-04-01T19:13:26;4.10;;;2.25;;
7545;SDS011;3814;51.454;12.616;2023-04-01T19:19:07;4.65;;;2.30;;
7545;SDS011;3814;51.454;12.616;2023-04-01T19:22:08;5.07;;;2.60;;
7545;SDS011;3814;51.454;12.616;2023-04-01T19:27:50;4.35;;;2.25;;
7545;SDS011;3814;51.454;12.616;2023-04-01T19:30:27;4.70;;;2.45;;
7545;SDS011;3814;51.454;12.616;2023-04-01T19:36:02;5.03;;;2.80;;
7545;SDS011;3814;51.454;12.616;2023-04-01T19:46:49;4.78;;;2.67;;
7545;SDS011;3814;51.454;12.616;2023-04-01T19:54:51;5.55;;;2.53;;
7545;SDS011;3814;51.454;12.616;2023-04-01T19:57:32;5.72;;;2.65;;
7545;SDS011;3814;51.454;12.616;2023-04-01T20:00:21;5.30;;;2.53;;
7545;SDS011;3814;51.454;12.616;2023-04-01T20:08:21;5.20;;;2.85;;
7545;SDS011;3814;51.454;12.616;2023-04-01T20:10:56;5.15;;;2.47;;
7545;SDS011;3814;51.454;12.616;2023-04-01T20:16:15;5.85;;;2.78;;
7545;SDS011;3814;51.454;12.616;2023-04-01T20:21:28;6.38;;;3.17;;
7545;SDS011;3814;51.454;12.616;2023-04-01T20:24:04;6.50;;;3.30;;
7545;SDS011;3814;51.454;12.616;2023-04-01T20:26:39;6.55;;;3.15;;
7545;SDS011;3814;51.454;12.616;2023-04-01T20:29:24;6.13;;;3.03;;
7545;SDS011;3814;51.454;12.616;2023-04-01T20:37:40;6.90;;;3.28;;
7545;SDS011;3814;51.454;12.616;2023-04-01T20:50:59;6.43;;;3.03;;
7545;SDS011;3814;51.454;12.616;2023-04-01T20:53:34;6.95;;;3.53;;
7545;SDS011;3814;51.454;12.616;2023-04-01T20:58:44;7.20;;;3.40;;
7545;SDS011;3814;51.454;12.616;2023-04-01T21:07:11;6.20;;;3.00;;
7545;SDS011;3814;51.454;12.616;2023-04-01T21:09:47;8.10;;;3.70;;
7545;SDS011;3814;51.454;12.616;2023-04-01T21:12:47;7.75;;;3.70;;
7545;SDS011;3814;51.454;12.616;2023-04-01T21:21:05;7.85;;;4.00;;
7545;SDS011;3814;51.454;12.616;2023-04-01T21:26:30;8.93;;;3.95;;
7545;SDS011;3814;51.454;12.616;2023-04-01T21:29:19;8.90;;;4.03;;
7545;SDS011;3814;51.454;12.616;2023-04-01T21:35:03;6.93;;;3.50;;
7545;SDS011;3814;51.454;12.616;2023-04-01T21:49:08;8.00;;;4.00;;
7545;SDS011;3814;51.454;12.616;2023-04-01T22:00:29;6.85;;;3.25;;
7545;SDS011;3814;51.454;12.616;2023-04-01T22:08:32;7.63;;;3.58;;
7545;SDS011;3814;51.454;12.616;2023-04-01T22:11:27;7.97;;;4.20;;
7545;SDS011;3814;51.454;12.616;2023-04-01T22:14:07;8.40;;;3.58;;
7545;SDS011;3814;51.454;12.616;2023-04-01T22:16:44;7.78;;;4.00;;
7545;SDS011;3814;51.454;12.616;2023-04-01T22:19:16;7.65;;;3.55;;
7545;SDS011;3814;51.454;12.616;2023-04-01T22:21:58;7.68;;;3.83;;
7545;SDS011;3814;51.454;12.616;2023-04-01T22:24:29;7.47;;;3.40;;
7545;SDS011;3814;51.454;12.616;2023-04-01T22:29:36;6.95;;;3.25;;
7545;SDS011;3814;51.454;12.616;2023-04-01T22:32:11;6.80;;;3.30;;
7545;SDS011;3814;51.454;12.616;2023-04-01T22:37:32;8.48;;;3.47;;
7545;SDS011;3814;51.454;12.616;2023-04-01T22:40:14;7.30;;;3.58;;
7545;SDS011;3814;51.454;12.616;2023-04-01T22:43:06;7.05;;;3.40;;
7545;SDS011;3814;51.454;12.616;2023-04-01T22:45:49;6.65;;;3.33;;